Aviation Digital Data Service (ADDS)

Output produced by METARs form (0503 UTC 21 September 2017)
found at http://www.aviationweather.gov/adds/metars/
 
GOGS 210400Z VRB10KT 9999 SCT015 29/26 Q1010
TAF GOGS 202330Z 2100/2124 29010KT 9999 SCT013
       
GOGG 210400Z 26004KT 9999 SCT016 28/27 Q1012
GOGK 210300Z 24004KT 8000 BKN020 28/27 Q1010
GOGS 210400Z VRB10KT 9999 SCT015 29/26 Q1010
TAF GOGS 202330Z 2100/2124 29010KT 9999 SCT013
       
GOOD 210300Z 28004KT 8000 NSC 27/26 Q1010
GOOG 210300Z 00000KT 8000 NSC 27/25 Q////
GOOK 210300Z 28010KT 8000 FEW013 SCT230 28/26 Q1011
GOOY 210430Z 31008KT 280V340 9999 SCT010 28/26 Q1010 TEMPO BKN010
TAF GOOY 202330Z 2100/2206 30012KT 9999 SCT012
       
GOSM 210300Z 30004KT CAVOK 31/24 Q1007
GOSP 210300Z 28002KT CAVOK 29/22 Q1009
GOSS 210300Z 36006KT CAVOK 28/27 Q1009
TAF GOSS 202330Z 2100/2124 32010KT 9999 SCT013
       
GOTK 210300Z 28006KT 9999 FEW013 BKN230 28/25 Q1011
GOTT 210300Z 24006KT CAVOK 28/26 Q1009
GOOK 210300Z 28010KT 8000 FEW013 SCT230 28/26 Q1011
GOTK 210300Z 28006KT 9999 FEW013 BKN230 28/25 Q1011
GOOY 210430Z 31008KT 280V340 9999 SCT010 28/26 Q1010 TEMPO BKN010
TAF GOOY 202330Z 2100/2206 30012KT 9999 SCT012
       
GOSS 210300Z 36006KT CAVOK 28/27 Q1009
TAF GOSS 202330Z 2100/2124 32010KT 9999 SCT013
       
GOTT 210300Z 24006KT CAVOK 28/26 Q1009
GOGG 210400Z 26004KT 9999 SCT016 28/27 Q1012